createdAt,value
2023-03-08T00:01:20.588Z,2.46
2023-03-08T00:03:47.660Z,2.48
2023-03-08T00:06:16.476Z,2.48
2023-03-08T00:08:43.155Z,2.49
2023-03-08T00:11:12.452Z,2.49
2023-03-08T00:13:39.647Z,2.50
2023-03-08T00:16:08.447Z,2.50
2023-03-08T00:18:36.262Z,2.48
2023-03-08T00:21:05.138Z,2.48
2023-03-08T00:23:31.669Z,2.46
2023-03-08T00:25:58.761Z,2.48
2023-03-08T00:28:25.988Z,2.49
2023-03-08T00:31:00.253Z,2.47
2023-03-08T00:33:27.061Z,2.48
2023-03-08T00:36:02.145Z,2.53
2023-03-08T00:38:30.387Z,2.50
2023-03-08T00:40:56.928Z,2.51
2023-03-08T00:43:23.722Z,2.49
2023-03-08T00:45:53.190Z,2.52
2023-03-08T00:48:20.775Z,2.52
2023-03-08T00:50:47.654Z,2.50
2023-03-08T00:53:14.869Z,2.49
2023-03-08T00:55:49.503Z,2.50
2023-03-08T00:58:16.227Z,2.51
2023-03-08T01:00:42.835Z,2.51
2023-03-08T01:03:09.377Z,2.55
2023-03-08T01:05:47.591Z,2.56
2023-03-08T01:08:15.223Z,2.57
2023-03-08T01:10:48.021Z,2.59
2023-03-08T01:13:14.515Z,2.64
2023-03-08T01:15:41.074Z,2.67
2023-03-08T01:18:07.603Z,2.68
2023-03-08T01:20:34.227Z,2.68
2023-03-08T01:23:00.766Z,2.68
2023-03-08T01:25:27.864Z,2.70
2023-03-08T01:27:54.346Z,2.71
2023-03-08T01:30:21.250Z,2.73
2023-03-08T01:32:48.080Z,2.74
2023-03-08T01:35:14.560Z,2.74
2023-03-08T01:37:41.120Z,2.73
2023-03-08T01:40:16.756Z,2.74
2023-03-08T01:42:43.244Z,2.75
2023-03-08T01:45:47.381Z,2.76
2023-03-08T01:48:15.977Z,2.77
2023-03-08T01:50:45.857Z,2.77
2023-03-08T01:53:13.971Z,2.75
2023-03-08T01:55:41.244Z,2.74
2023-03-08T01:58:08.065Z,2.76
2023-03-08T02:00:34.536Z,2.78
2023-03-08T02:03:07.452Z,2.76
2023-03-08T02:05:36.640Z,2.78
2023-03-08T02:08:05.645Z,2.76
2023-03-08T02:10:32.326Z,2.75
2023-03-08T02:12:58.964Z,2.75
2023-03-08T02:15:25.530Z,2.70
2023-03-08T02:17:52.072Z,2.72
2023-03-08T02:20:25.845Z,2.70
2023-03-08T02:22:53.306Z,2.72
2023-03-08T02:25:27.297Z,2.68
2023-03-08T02:27:54.607Z,2.69
2023-03-08T02:30:27.964Z,2.70
2023-03-08T02:32:54.461Z,2.68
2023-03-08T02:35:20.982Z,2.66
2023-03-08T02:37:47.804Z,2.65
2023-03-08T02:40:14.693Z,2.63
2023-03-08T02:42:41.527Z,2.63
2023-03-08T02:45:08.939Z,2.62
2023-03-08T02:47:35.836Z,2.61
2023-03-08T02:50:02.301Z,2.66
2023-03-08T02:52:28.814Z,2.55
2023-03-08T02:54:55.298Z,2.58
2023-03-08T02:57:21.946Z,2.59
2023-03-08T02:59:49.058Z,2.55
2023-03-08T03:02:15.620Z,2.57
2023-03-08T03:04:42.255Z,2.54
2023-03-08T03:07:09.012Z,2.56
2023-03-08T03:09:35.982Z,2.54
2023-03-08T03:12:02.518Z,2.56
2023-03-08T03:14:29.930Z,2.53
2023-03-08T03:16:56.701Z,2.53
2023-03-08T03:19:23.207Z,2.54
2023-03-08T03:21:49.698Z,2.53
2023-03-08T03:24:16.336Z,2.56
2023-03-08T03:26:42.883Z,2.53
2023-03-08T03:29:09.482Z,2.57
2023-03-08T03:31:36.101Z,2.55
2023-03-08T03:34:02.805Z,2.58
2023-03-08T03:36:29.442Z,2.55
2023-03-08T03:38:55.919Z,2.57
2023-03-08T03:41:23.599Z,2.53
2023-03-08T03:43:51.321Z,2.52
2023-03-08T03:46:20.449Z,2.51
2023-03-08T03:48:47.621Z,2.52
2023-03-08T03:51:17.530Z,2.50
2023-03-08T03:53:44.582Z,2.49
2023-03-08T03:56:15.189Z,2.49
2023-03-08T03:58:42.634Z,2.50
2023-03-08T04:01:24.639Z,2.49
2023-03-08T04:03:51.826Z,2.51
2023-03-08T04:06:22.361Z,2.53
2023-03-08T04:08:49.201Z,2.55
2023-03-08T04:11:19.288Z,2.53
2023-03-08T04:13:46.336Z,2.53
2023-03-08T04:16:26.786Z,2.51
2023-03-08T04:19:00.761Z,2.50
2023-03-08T04:21:28.245Z,2.51
2023-03-08T04:23:55.105Z,2.49
2023-03-08T04:26:22.277Z,2.37
2023-03-08T04:28:49.167Z,2.42
2023-03-08T04:31:16.268Z,2.44
2023-03-08T04:33:42.867Z,2.43
2023-03-08T04:36:10.093Z,2.42
2023-03-08T04:38:36.664Z,2.47
2023-03-08T04:41:11.957Z,2.50
2023-03-08T04:43:40.202Z,2.48
2023-03-08T04:46:07.872Z,2.41
2023-03-08T04:48:34.421Z,2.45
2023-03-08T04:51:03.380Z,2.44
2023-03-08T04:53:31.399Z,2.45
2023-03-08T04:56:00.529Z,2.47
2023-03-08T04:58:30.664Z,2.45
2023-03-08T05:00:57.275Z,2.41
2023-03-08T05:03:23.911Z,2.41
2023-03-08T05:05:56.036Z,2.40
2023-03-08T05:08:23.117Z,2.41
2023-03-08T05:10:55.155Z,2.41
2023-03-08T05:13:21.649Z,2.39
2023-03-08T05:15:48.235Z,2.41
2023-03-08T05:18:14.789Z,2.38
2023-03-08T05:20:41.963Z,2.35
2023-03-08T05:23:08.484Z,2.27
2023-03-08T05:25:34.955Z,2.31
2023-03-08T05:28:01.456Z,2.30
2023-03-08T05:30:27.961Z,2.34
2023-03-08T05:32:54.493Z,2.37
2023-03-08T05:35:21.433Z,2.35
2023-03-08T05:37:47.927Z,2.28
2023-03-08T05:40:14.446Z,2.33
2023-03-08T05:42:40.961Z,2.32
2023-03-08T05:45:08.417Z,2.30
2023-03-08T05:47:35.006Z,2.28
2023-03-08T05:50:01.581Z,2.27
2023-03-08T05:52:29.830Z,2.26
2023-03-08T05:54:56.299Z,2.27
2023-03-08T05:57:22.833Z,2.31
2023-03-08T05:59:49.434Z,2.23
2023-03-08T06:02:15.970Z,2.24
2023-03-08T06:04:42.609Z,2.26
2023-03-08T06:07:09.264Z,2.27
2023-03-08T06:09:35.722Z,2.36
2023-03-08T06:12:02.166Z,2.45
2023-03-08T06:14:28.704Z,2.49
2023-03-08T06:16:55.196Z,2.51
2023-03-08T06:19:21.737Z,2.47
2023-03-08T06:21:48.229Z,2.45
2023-03-08T06:24:15.436Z,2.37
2023-03-08T06:26:41.906Z,2.40
2023-03-08T06:29:08.480Z,2.39
2023-03-08T06:31:34.958Z,2.37
2023-03-08T06:34:01.445Z,2.38
2023-03-08T06:36:27.988Z,2.30
2023-03-08T06:38:54.757Z,2.31
2023-03-08T06:41:21.911Z,2.34
2023-03-08T06:43:48.862Z,2.34
2023-03-08T06:46:18.116Z,2.28
2023-03-08T06:48:45.603Z,2.35
2023-03-08T06:51:12.475Z,2.35
2023-03-08T06:53:39.405Z,2.37
2023-03-08T06:56:08.633Z,2.43
2023-03-08T06:58:36.688Z,2.45
2023-03-08T07:01:05.787Z,2.50
2023-03-08T07:03:33.310Z,2.52
2023-03-08T07:06:01.487Z,2.52
2023-03-08T07:08:28.184Z,2.56
2023-03-08T07:10:54.798Z,2.55
2023-03-08T07:13:23.871Z,2.56
2023-03-08T07:15:51.353Z,2.51
2023-03-08T07:18:18.937Z,2.54
2023-03-08T07:20:45.807Z,2.55
2023-03-08T07:23:12.305Z,2.56
2023-03-08T07:25:40.230Z,2.59
2023-03-08T07:28:06.759Z,2.44
2023-03-08T07:30:33.357Z,2.43
2023-03-08T07:32:59.929Z,2.44
2023-03-08T07:35:26.457Z,2.47
2023-03-08T07:37:53.123Z,2.46
2023-03-08T07:40:19.846Z,2.49
2023-03-08T07:42:46.801Z,2.50
2023-03-08T07:45:14.287Z,2.50
2023-03-08T07:47:41.529Z,2.54
2023-03-08T07:50:09.367Z,2.48
2023-03-08T07:52:35.880Z,2.37
2023-03-08T07:55:03.605Z,2.20
2023-03-08T07:57:30.142Z,2.19
2023-03-08T07:59:56.648Z,2.20
2023-03-08T08:02:23.197Z,2.22
2023-03-08T08:04:50.751Z,2.22
2023-03-08T08:07:18.049Z,2.24
2023-03-08T08:09:44.561Z,2.18
2023-03-08T08:12:11.345Z,2.19
2023-03-08T08:14:37.924Z,2.17
2023-03-08T08:17:04.758Z,2.07
2023-03-08T08:19:32.140Z,2.10
2023-03-08T08:21:59.430Z,2.09
2023-03-08T08:24:26.944Z,2.07
2023-03-08T08:26:53.829Z,2.12
2023-03-08T08:29:20.992Z,2.09
2023-03-08T08:31:47.588Z,2.05
2023-03-08T08:34:15.561Z,2.00
2023-03-08T08:36:42.066Z,2.01
2023-03-08T08:39:08.759Z,2.08
2023-03-08T08:41:35.268Z,2.07
2023-03-08T08:44:01.755Z,1.99
2023-03-08T08:46:28.885Z,1.94
2023-03-08T08:48:55.983Z,1.88
2023-03-08T08:51:22.662Z,1.93
2023-03-08T08:53:49.589Z,1.89
2023-03-08T08:56:28.402Z,1.97
2023-03-08T08:58:56.915Z,1.88
2023-03-08T09:01:26.898Z,1.80
2023-03-08T09:03:54.224Z,1.82
2023-03-08T09:06:23.092Z,1.89
2023-03-08T09:08:54.966Z,1.78
2023-03-08T09:11:22.124Z,1.78
2023-03-08T09:13:48.804Z,1.87
2023-03-08T09:16:22.307Z,1.97
2023-03-08T09:18:49.115Z,1.95
2023-03-08T09:21:16.617Z,1.75
2023-03-08T09:23:43.835Z,1.60
2023-03-08T09:26:10.894Z,1.69
2023-03-08T09:28:38.612Z,1.67
2023-03-08T09:31:12.898Z,1.65
2023-03-08T09:33:41.934Z,1.71
2023-03-08T09:36:08.815Z,1.77
2023-03-08T09:38:35.573Z,1.61
2023-03-08T09:41:14.769Z,1.56
2023-03-08T09:43:59.406Z,1.50
2023-03-08T09:46:34.125Z,1.56
2023-03-08T09:49:03.215Z,1.52
2023-03-08T09:51:36.198Z,1.46
2023-03-08T09:54:08.257Z,1.56
2023-03-08T09:56:46.669Z,1.63
2023-03-08T09:59:23.979Z,1.69
2023-03-08T10:01:56.651Z,1.77
2023-03-08T10:04:35.779Z,1.85
2023-03-08T10:07:16.417Z,1.89
2023-03-08T10:09:55.848Z,1.85
2023-03-08T10:12:40.660Z,1.70
2023-03-08T10:15:20.537Z,1.69
2023-03-08T10:17:55.908Z,1.76
2023-03-08T10:20:28.193Z,1.72
2023-03-08T10:23:18.346Z,1.62
2023-03-08T10:25:45.817Z,1.47
2023-03-08T10:28:15.750Z,1.51
2023-03-08T10:30:52.583Z,1.68
2023-03-08T10:33:24.510Z,1.84
2023-03-08T10:36:06.670Z,1.85
2023-03-08T10:38:35.158Z,1.96
2023-03-08T10:41:12.986Z,1.74
2023-03-08T10:43:44.969Z,1.88
2023-03-08T10:46:14.465Z,2.06
2023-03-08T10:48:41.432Z,2.16
2023-03-08T10:51:17.845Z,2.19
2023-03-08T10:54:04.631Z,2.23
2023-03-08T10:56:45.194Z,2.03
2023-03-08T10:59:33.047Z,2.18
2023-03-08T11:02:18.373Z,2.24
2023-03-08T11:05:00.824Z,2.30
2023-03-08T11:07:33.492Z,2.27
2023-03-08T11:10:12.310Z,2.15
2023-03-08T11:12:39.529Z,2.15
2023-03-08T11:15:17.316Z,2.16
2023-03-08T11:18:04.148Z,2.16
2023-03-08T11:20:45.441Z,2.19
2023-03-08T11:23:24.101Z,2.07
2023-03-08T11:26:06.708Z,1.94
2023-03-08T11:29:06.099Z,1.93
2023-03-08T11:31:47.440Z,1.91
2023-03-08T11:34:16.939Z,1.97
2023-03-08T11:36:53.217Z,2.04
2023-03-08T11:39:31.259Z,2.12
2023-03-08T11:42:06.513Z,2.20
2023-03-08T11:44:51.299Z,2.23
2023-03-08T11:47:38.397Z,2.17
2023-03-08T11:50:10.048Z,2.23
2023-03-08T11:52:53.504Z,2.24
2023-03-08T11:55:20.799Z,2.12
2023-03-08T11:57:56.066Z,2.14
2023-03-08T12:00:30.691Z,2.17
2023-03-08T12:03:05.468Z,2.06
2023-03-08T12:05:41.149Z,2.05
2023-03-08T12:08:14.175Z,1.97
2023-03-08T12:10:56.767Z,2.03
2023-03-08T12:13:38.425Z,1.93
2023-03-08T12:16:29.249Z,1.88
2023-03-08T12:19:20.525Z,1.96
2023-03-08T12:22:05.462Z,2.01
2023-03-08T12:24:41.131Z,2.03
2023-03-08T12:27:22.857Z,1.94
2023-03-08T12:29:55.395Z,1.96
2023-03-08T12:32:23.687Z,1.95
2023-03-08T12:35:01.576Z,1.86
2023-03-08T12:37:29.945Z,1.85
2023-03-08T12:40:05.862Z,1.96
2023-03-08T12:42:40.406Z,1.88
2023-03-08T12:45:06.858Z,1.96
2023-03-08T12:47:33.387Z,2.10
2023-03-08T12:50:09.986Z,2.18
2023-03-08T12:52:36.778Z,2.29
2023-03-08T12:55:33.579Z,2.19
2023-03-08T12:58:02.797Z,2.23
2023-03-08T13:00:32.813Z,2.30
2023-03-08T13:03:19.533Z,2.34
2023-03-08T13:05:49.842Z,2.44
2023-03-08T13:08:16.410Z,2.48
2023-03-08T13:11:09.271Z,2.39
2023-03-08T13:13:45.849Z,2.45
2023-03-08T13:16:15.247Z,2.30
2023-03-08T13:18:46.552Z,2.18
2023-03-08T13:21:28.239Z,2.17
2023-03-08T13:24:10.218Z,2.19
2023-03-08T13:26:53.214Z,2.27
2023-03-08T13:29:21.044Z,2.25
2023-03-08T13:31:48.721Z,2.30
2023-03-08T13:34:25.867Z,2.33
2023-03-08T13:36:52.616Z,2.39
2023-03-08T13:39:22.640Z,2.43
2023-03-08T13:41:49.369Z,2.38
2023-03-08T13:44:24.823Z,2.31
2023-03-08T13:46:55.151Z,2.28
2023-03-08T13:49:32.476Z,2.28
2023-03-08T13:52:05.202Z,2.29
2023-03-08T13:54:37.809Z,2.27
2023-03-08T13:57:17.241Z,2.28
2023-03-08T13:59:58.890Z,2.30
2023-03-08T14:02:28.375Z,2.37
2023-03-08T14:04:55.869Z,2.38
2023-03-08T14:07:32.102Z,2.23
2023-03-08T14:09:59.297Z,2.20
2023-03-08T14:12:29.924Z,2.22
2023-03-08T14:15:03.645Z,2.19
2023-03-08T14:17:34.115Z,2.13
2023-03-08T14:20:07.002Z,2.22
2023-03-08T14:22:40.306Z,2.23
2023-03-08T14:25:21.864Z,2.25
2023-03-08T14:27:48.918Z,2.26
2023-03-08T14:30:27.177Z,2.32
2023-03-08T14:32:59.708Z,2.33
2023-03-08T14:35:29.998Z,2.31
2023-03-08T14:37:57.123Z,2.32
2023-03-08T14:40:28.813Z,2.24
2023-03-08T14:42:58.286Z,2.29
2023-03-08T14:45:33.977Z,2.33
2023-03-08T14:48:03.050Z,2.33
2023-03-08T14:50:32.795Z,2.32
2023-03-08T14:53:02.478Z,2.31
2023-03-08T14:55:32.337Z,2.24
2023-03-08T14:58:11.665Z,2.31
2023-03-08T15:00:49.188Z,2.37
2023-03-08T15:03:15.646Z,2.40
2023-03-08T15:05:42.267Z,2.40
2023-03-08T15:08:13.257Z,2.38
2023-03-08T15:10:41.198Z,2.35
2023-03-08T15:13:14.597Z,2.38
2023-03-08T15:15:41.285Z,2.40
2023-03-08T15:18:07.918Z,2.45
2023-03-08T15:20:35.584Z,2.39
2023-03-08T15:23:06.135Z,2.44
2023-03-08T15:25:38.622Z,2.46
2023-03-08T15:28:06.510Z,2.49
2023-03-08T15:30:33.444Z,2.53
2023-03-08T15:33:01.743Z,2.50
2023-03-08T15:35:28.241Z,2.51
2023-03-08T15:37:54.701Z,2.42
2023-03-08T15:40:27.493Z,2.37
2023-03-08T15:42:54.677Z,2.40
2023-03-08T15:45:21.612Z,2.40
2023-03-08T15:48:08.260Z,2.45
2023-03-08T15:50:34.988Z,2.37
2023-03-08T15:53:01.557Z,2.31
2023-03-08T15:55:29.937Z,2.31
2023-03-08T15:57:56.618Z,2.39
2023-03-08T16:00:24.356Z,2.34
2023-03-08T16:02:52.722Z,2.33
2023-03-08T16:05:22.978Z,2.31
2023-03-08T16:07:57.830Z,2.28
2023-03-08T16:10:24.756Z,2.27
2023-03-08T16:12:51.535Z,2.28
2023-03-08T16:15:18.787Z,2.29
2023-03-08T16:17:45.710Z,2.35
2023-03-08T16:20:14.465Z,2.38
2023-03-08T16:22:41.377Z,2.35
2023-03-08T16:25:09.185Z,2.40
2023-03-08T16:27:38.105Z,2.39
2023-03-08T16:30:05.981Z,2.33
2023-03-08T16:32:32.708Z,2.38
2023-03-08T16:35:01.808Z,2.34
2023-03-08T16:37:28.645Z,2.30
2023-03-08T16:39:57.596Z,2.28
2023-03-08T16:42:24.612Z,2.28
2023-03-08T16:44:54.086Z,2.31
2023-03-08T16:47:24.854Z,2.29
2023-03-08T16:49:51.411Z,2.32
2023-03-08T16:52:18.632Z,2.31
2023-03-08T16:54:45.608Z,2.29
2023-03-08T16:57:19.021Z,2.33
2023-03-08T16:59:46.771Z,2.34
2023-03-08T17:02:15.636Z,2.38
2023-03-08T17:04:46.327Z,2.36
2023-03-08T17:07:13.485Z,2.37
2023-03-08T17:09:41.751Z,2.33
2023-03-08T17:12:09.652Z,2.30
2023-03-08T17:14:37.330Z,2.30
2023-03-08T17:17:05.421Z,2.29
2023-03-08T17:19:32.107Z,2.29
2023-03-08T17:21:58.887Z,2.28
2023-03-08T17:24:28.343Z,2.29
2023-03-08T17:26:55.800Z,2.30
2023-03-08T17:29:23.006Z,2.31
2023-03-08T17:31:51.163Z,2.34
2023-03-08T17:34:20.944Z,2.27
2023-03-08T17:36:48.092Z,2.26
2023-03-08T17:39:15.568Z,2.28
2023-03-08T17:41:43.122Z,2.32
2023-03-08T17:44:09.681Z,2.29
2023-03-08T17:46:36.514Z,2.31
2023-03-08T17:49:03.964Z,2.30
2023-03-08T17:51:32.913Z,2.32
2023-03-08T17:54:01.288Z,2.26
2023-03-08T17:56:30.484Z,2.26
2023-03-08T17:58:59.585Z,2.22
2023-03-08T18:01:29.493Z,2.21
2023-03-08T18:03:58.128Z,2.16
2023-03-08T18:06:32.408Z,2.17
2023-03-08T18:09:01.520Z,2.13
2023-03-08T18:11:29.116Z,2.18
2023-03-08T18:13:56.369Z,2.17
2023-03-08T18:16:23.907Z,2.20
2023-03-08T18:18:51.139Z,2.13
2023-03-08T18:21:18.789Z,2.19
2023-03-08T18:23:48.089Z,2.17
2023-03-08T18:26:17.024Z,2.19
2023-03-08T18:28:43.773Z,2.20
2023-03-08T18:31:15.187Z,2.23
2023-03-08T18:33:44.772Z,2.18
2023-03-08T18:36:11.717Z,2.22
2023-03-08T18:38:39.020Z,2.21
2023-03-08T18:41:22.677Z,2.23
2023-03-08T18:43:51.591Z,2.24
2023-03-08T18:46:18.722Z,2.22
2023-03-08T18:51:17.682Z,2.18
2023-03-08T18:53:44.507Z,2.18
2023-03-08T18:56:12.142Z,2.17
2023-03-08T18:58:38.859Z,2.18
2023-03-08T19:01:14.072Z,2.16
2023-03-08T19:03:41.767Z,2.21
2023-03-08T19:06:09.186Z,2.14
2023-03-08T19:08:36.904Z,2.09
2023-03-08T19:11:12.516Z,2.05
2023-03-08T19:13:39.237Z,2.11
2023-03-08T19:16:07.357Z,2.09
2023-03-08T19:18:34.372Z,2.14
2023-03-08T19:21:01.313Z,2.12
2023-03-08T19:23:28.221Z,2.14
2023-03-08T19:26:13.820Z,2.11
2023-03-08T19:28:40.663Z,2.12
2023-03-08T19:31:16.542Z,2.15
2023-03-08T19:33:49.883Z,2.18
2023-03-08T19:36:17.163Z,2.23
2023-03-08T19:38:44.277Z,2.22
2023-03-08T19:41:11.364Z,2.25
2023-03-08T19:43:37.972Z,2.28
2023-03-08T19:46:04.921Z,2.29
2023-03-08T19:48:32.177Z,2.25
2023-03-08T19:50:59.120Z,2.27
2023-03-08T19:53:25.957Z,2.26
2023-03-08T19:55:54.373Z,2.23
2023-03-08T19:58:23.660Z,2.18
2023-03-08T20:00:50.567Z,2.18
2023-03-08T20:03:17.891Z,2.20
2023-03-08T20:05:47.464Z,2.21
2023-03-08T20:08:14.522Z,2.21
2023-03-08T20:10:42.135Z,2.19
2023-03-08T20:13:08.716Z,2.18
2023-03-08T20:15:35.372Z,2.17
2023-03-08T20:18:01.882Z,2.23
2023-03-08T20:20:28.612Z,2.24
2023-03-08T20:22:55.210Z,2.21
2023-03-08T20:25:21.729Z,2.23
2023-03-08T20:27:48.213Z,2.25
2023-03-08T20:30:15.041Z,2.22
2023-03-08T20:32:41.650Z,2.22
2023-03-08T20:35:12.838Z,2.23
2023-03-08T20:37:39.661Z,2.28
2023-03-08T20:40:07.316Z,2.28
2023-03-08T20:42:36.890Z,2.26
2023-03-08T20:45:06.828Z,2.26
2023-03-08T20:47:33.371Z,2.21
2023-03-08T20:50:00.000Z,2.20
2023-03-08T20:52:26.493Z,2.22
2023-03-08T20:54:53.028Z,2.13
2023-03-08T20:57:19.537Z,2.15
2023-03-08T20:59:46.011Z,2.19
2023-03-08T21:02:12.691Z,2.23
2023-03-08T21:04:39.166Z,2.24
2023-03-08T21:07:06.761Z,2.29
2023-03-08T21:09:34.037Z,2.30
2023-03-08T21:12:00.604Z,2.29
2023-03-08T21:14:29.064Z,2.29
2023-03-08T21:16:55.645Z,2.29
2023-03-08T21:19:23.923Z,2.30
2023-03-08T21:21:51.453Z,2.30
2023-03-08T21:24:21.237Z,2.31
2023-03-08T21:26:47.759Z,2.36
2023-03-08T21:29:17.728Z,2.31
2023-03-08T21:31:48.449Z,2.29
2023-03-08T21:34:17.072Z,2.26
2023-03-08T21:36:44.744Z,2.26
2023-03-08T21:39:12.280Z,2.30
2023-03-08T21:41:41.417Z,2.28
2023-03-08T21:44:12.675Z,2.27
2023-03-08T21:46:40.731Z,2.24
2023-03-08T21:49:07.923Z,2.23
2023-03-08T21:51:34.817Z,2.28
2023-03-08T21:54:01.372Z,2.28
2023-03-08T21:56:27.920Z,2.26
2023-03-08T21:58:55.509Z,2.24
2023-03-08T22:01:25.756Z,2.26
2023-03-08T22:03:53.144Z,2.26
2023-03-08T22:06:20.572Z,2.27
2023-03-08T22:08:47.868Z,2.20
2023-03-08T22:11:15.307Z,2.24
2023-03-08T22:13:42.946Z,2.19
2023-03-08T22:16:09.829Z,2.17
2023-03-08T22:18:36.378Z,2.19
2023-03-08T22:21:02.919Z,2.17
2023-03-08T22:23:29.464Z,2.19
2023-03-08T22:25:55.998Z,2.18
2023-03-08T22:28:22.572Z,2.15
2023-03-08T22:30:49.197Z,2.15
2023-03-08T22:33:15.745Z,2.12
2023-03-08T22:35:46.800Z,2.08
2023-03-08T22:38:13.520Z,2.08
2023-03-08T22:40:43.319Z,2.07
2023-03-08T22:43:10.676Z,2.10
2023-03-08T22:45:37.377Z,2.12
2023-03-08T22:48:04.667Z,2.13
2023-03-08T22:50:31.178Z,2.12
2023-03-08T22:52:57.700Z,2.11
2023-03-08T22:55:24.226Z,2.07
2023-03-08T22:57:50.717Z,2.06
2023-03-08T23:00:17.404Z,2.08
2023-03-08T23:02:45.902Z,2.05
2023-03-08T23:05:18.121Z,2.07
2023-03-08T23:07:45.424Z,2.13
2023-03-08T23:10:13.348Z,2.12
2023-03-08T23:12:40.632Z,2.12
2023-03-08T23:15:08.727Z,2.13
2023-03-08T23:17:35.976Z,2.15
2023-03-08T23:20:03.964Z,2.12
2023-03-08T23:22:30.636Z,2.15
2023-03-08T23:24:57.264Z,2.14
2023-03-08T23:27:23.975Z,2.12
2023-03-08T23:29:53.841Z,2.13
2023-03-08T23:32:20.639Z,2.12
2023-03-08T23:34:47.352Z,2.12
2023-03-08T23:37:13.996Z,2.13
2023-03-08T23:39:40.572Z,2.15
2023-03-08T23:42:07.337Z,2.19
2023-03-08T23:44:33.901Z,2.22
2023-03-08T23:47:00.779Z,2.20
2023-03-08T23:49:27.416Z,2.17
2023-03-08T23:51:54.070Z,2.13
2023-03-08T23:54:20.619Z,2.09
2023-03-08T23:56:47.202Z,2.11
2023-03-08T23:59:21.971Z,2.13
